sensor_id;sensor_type;location;lat;lon;timestamp;pressure;altitude;pressure_sealevel;temperature;humidity
57847;BME280;43675;50.030;21.952;2023-04-24T00:00:46;98035.63;;;8.85;54.92
57847;BME280;43675;50.030;21.952;2023-04-24T00:03:24;98030.56;;;8.84;54.98
57847;BME280;43675;50.030;21.952;2023-04-24T00:05:51;98026.45;;;8.99;54.87
57847;BME280;43675;50.030;21.952;2023-04-24T00:08:18;98023.84;;;9.13;54.54
57847;BME280;43675;50.030;21.952;2023-04-24T00:10:44;98024.73;;;9.23;54.44
57847;BME280;43675;50.030;21.952;2023-04-24T00:13:11;98019.15;;;9.17;54.28
57847;BME280;43675;50.030;21.952;2023-04-24T00:15:38;98020.21;;;9.06;54.60
57847;BME280;43675;50.030;21.952;2023-04-24T00:18:04;98014.02;;;8.98;54.51
57847;BME280;43675;50.030;21.952;2023-04-24T00:20:31;98015.08;;;8.95;54.76
57847;BME280;43675;50.030;21.952;2023-04-24T00:22:58;98014.14;;;8.93;54.90
57847;BME280;43675;50.030;21.952;2023-04-24T00:25:24;98013.65;;;8.89;55.05
57847;BME280;43675;50.030;21.952;2023-04-24T00:27:51;98010.73;;;8.88;55.03
57847;BME280;43675;50.030;21.952;2023-04-24T00:30:17;98006.77;;;8.90;54.94
57847;BME280;43675;50.030;21.952;2023-04-24T00:32:44;98001.64;;;8.92;54.86
57847;BME280;43675;50.030;21.952;2023-04-24T00:35:10;98000.88;;;8.94;54.81
57847;BME280;43675;50.030;21.952;2023-04-24T00:37:37;97999.42;;;8.96;54.79
57847;BME280;43675;50.030;21.952;2023-04-24T00:40:04;97994.77;;;8.97;54.79
57847;BME280;43675;50.030;21.952;2023-04-24T00:42:31;97994.21;;;8.98;54.72
57847;BME280;43675;50.030;21.952;2023-04-24T00:44:58;97990.00;;;8.99;54.78
57847;BME280;43675;50.030;21.952;2023-04-24T00:47:25;97986.19;;;9.02;54.59
57847;BME280;43675;50.030;21.952;2023-04-24T00:49:51;97988.67;;;9.05;54.35
57847;BME280;43675;50.030;21.952;2023-04-24T00:52:18;97987.54;;;9.07;54.48
57847;BME280;43675;50.030;21.952;2023-04-24T00:54:45;97985.77;;;9.10;54.48
57847;BME280;43675;50.030;21.952;2023-04-24T00:57:13;97986.66;;;9.13;54.49
57847;BME280;43675;50.030;21.952;2023-04-24T00:59:41;97983.22;;;9.16;54.42
57847;BME280;43675;50.030;21.952;2023-04-24T01:02:09;97982.05;;;9.20;54.35
57847;BME280;43675;50.030;21.952;2023-04-24T01:04:36;97982.75;;;9.20;54.26
57847;BME280;43675;50.030;21.952;2023-04-24T01:07:03;97982.46;;;9.21;54.34
57847;BME280;43675;50.030;21.952;2023-04-24T01:09:30;97983.29;;;9.21;54.36
57847;BME280;43675;50.030;21.952;2023-04-24T01:11:57;97979.45;;;9.21;54.39
57847;BME280;43675;50.030;21.952;2023-04-24T01:14:24;97982.64;;;9.19;54.30
57847;BME280;43675;50.030;21.952;2023-04-24T01:16:50;97980.52;;;9.17;54.25
57847;BME280;43675;50.030;21.952;2023-04-24T01:19:18;97980.11;;;9.16;54.52
57847;BME280;43675;50.030;21.952;2023-04-24T01:21:47;97975.78;;;9.14;54.51
57847;BME280;43675;50.030;21.952;2023-04-24T01:24:17;97976.64;;;9.14;54.39
57847;BME280;43675;50.030;21.952;2023-04-24T01:26:43;97982.60;;;9.15;54.52
57847;BME280;43675;50.030;21.952;2023-04-24T01:29:10;97980.86;;;9.16;54.42
57847;BME280;43675;50.030;21.952;2023-04-24T01:31:37;97981.86;;;9.15;54.51
57847;BME280;43675;50.030;21.952;2023-04-24T01:34:04;97978.73;;;9.14;54.53
57847;BME280;43675;50.030;21.952;2023-04-24T01:36:31;97977.55;;;9.14;54.55
57847;BME280;43675;50.030;21.952;2023-04-24T01:38:59;97976.36;;;9.16;54.67
57847;BME280;43675;50.030;21.952;2023-04-24T01:41:25;97975.77;;;9.17;54.61
57847;BME280;43675;50.030;21.952;2023-04-24T01:43:53;97969.59;;;9.18;54.53
57847;BME280;43675;50.030;21.952;2023-04-24T01:46:20;97973.15;;;9.21;54.54
57847;BME280;43675;50.030;21.952;2023-04-24T01:48:47;97972.69;;;9.21;54.46
57847;BME280;43675;50.030;21.952;2023-04-24T01:51:14;97971.30;;;9.21;54.67
57847;BME280;43675;50.030;21.952;2023-04-24T01:53:40;97970.96;;;9.21;54.41
57847;BME280;43675;50.030;21.952;2023-04-24T01:56:07;97968.13;;;9.21;54.43
57847;BME280;43675;50.030;21.952;2023-04-24T01:58:33;97969.61;;;9.21;54.63
57847;BME280;43675;50.030;21.952;2023-04-24T02:01:00;97964.63;;;9.21;54.63
57847;BME280;43675;50.030;21.952;2023-04-24T02:03:27;97962.15;;;9.20;54.65
57847;BME280;43675;50.030;21.952;2023-04-24T02:05:53;97962.65;;;9.20;54.82
57847;BME280;43675;50.030;21.952;2023-04-24T02:08:20;97962.04;;;9.20;54.64
57847;BME280;43675;50.030;21.952;2023-04-24T02:10:46;97964.20;;;9.19;54.57
57847;BME280;43675;50.030;21.952;2023-04-24T02:13:13;97961.46;;;9.17;54.73
57847;BME280;43675;50.030;21.952;2023-04-24T02:15:39;97961.09;;;9.15;54.84
57847;BME280;43675;50.030;21.952;2023-04-24T02:18:06;97956.13;;;9.14;54.94
57847;BME280;43675;50.030;21.952;2023-04-24T02:20:32;97955.11;;;9.14;54.92
57847;BME280;43675;50.030;21.952;2023-04-24T02:22:59;97950.63;;;9.12;54.87
57847;BME280;43675;50.030;21.952;2023-04-24T02:25:26;97950.22;;;9.12;55.11
57847;BME280;43675;50.030;21.952;2023-04-24T02:27:52;97945.73;;;9.12;54.98
57847;BME280;43675;50.030;21.952;2023-04-24T02:30:19;97941.81;;;9.12;54.98
57847;BME280;43675;50.030;21.952;2023-04-24T02:32:45;97940.42;;;9.13;55.07
57847;BME280;43675;50.030;21.952;2023-04-24T02:35:12;97937.49;;;9.16;54.85
57847;BME280;43675;50.030;21.952;2023-04-24T02:37:38;97934.40;;;9.16;54.91
57847;BME280;43675;50.030;21.952;2023-04-24T02:40:05;97932.54;;;9.18;54.96
57847;BME280;43675;50.030;21.952;2023-04-24T02:42:32;97935.11;;;9.20;55.00
57847;BME280;43675;50.030;21.952;2023-04-24T02:44:59;97932.37;;;9.21;55.01
57847;BME280;43675;50.030;21.952;2023-04-24T02:47:25;97929.88;;;9.22;55.01
57847;BME280;43675;50.030;21.952;2023-04-24T02:49:52;97930.69;;;9.23;54.96
57847;BME280;43675;50.030;21.952;2023-04-24T02:52:18;97924.10;;;9.23;54.93
57847;BME280;43675;50.030;21.952;2023-04-24T02:54:45;97927.51;;;9.21;55.06
57847;BME280;43675;50.030;21.952;2023-04-24T02:57:12;97927.40;;;9.20;54.92
57847;BME280;43675;50.030;21.952;2023-04-24T02:59:38;97930.00;;;9.19;55.13
57847;BME280;43675;50.030;21.952;2023-04-24T03:02:05;97928.73;;;9.18;55.09
57847;BME280;43675;50.030;21.952;2023-04-24T03:04:31;97927.84;;;9.17;55.19
57847;BME280;43675;50.030;21.952;2023-04-24T03:06:58;97930.33;;;9.16;55.03
57847;BME280;43675;50.030;21.952;2023-04-24T03:09:24;97929.97;;;9.15;55.25
57847;BME280;43675;50.030;21.952;2023-04-24T03:11:51;97930.19;;;9.13;55.04
57847;BME280;43675;50.030;21.952;2023-04-24T03:14:17;97929.76;;;9.11;55.24
57847;BME280;43675;50.030;21.952;2023-04-24T03:16:44;97926.90;;;9.09;55.19
57847;BME280;43675;50.030;21.952;2023-04-24T03:19:11;97928.91;;;9.06;55.23
57847;BME280;43675;50.030;21.952;2023-04-24T03:21:38;97926.42;;;9.03;55.38
57847;BME280;43675;50.030;21.952;2023-04-24T03:24:05;97926.26;;;9.01;55.57
57847;BME280;43675;50.030;21.952;2023-04-24T03:26:31;97926.69;;;8.99;55.34
57847;BME280;43675;50.030;21.952;2023-04-24T03:28:58;97924.56;;;8.98;55.39
57847;BME280;43675;50.030;21.952;2023-04-24T03:31:24;97926.80;;;8.96;55.59
57847;BME280;43675;50.030;21.952;2023-04-24T03:33:51;97927.41;;;8.95;55.65
57847;BME280;43675;50.030;21.952;2023-04-24T03:36:17;97928.81;;;8.96;55.73
57847;BME280;43675;50.030;21.952;2023-04-24T03:38:44;97932.55;;;8.97;55.59
57847;BME280;43675;50.030;21.952;2023-04-24T03:41:11;97934.18;;;8.98;55.71
57847;BME280;43675;50.030;21.952;2023-04-24T03:43:38;97936.64;;;9.01;55.77
57847;BME280;43675;50.030;21.952;2023-04-24T03:46:04;97934.63;;;9.03;55.80
57847;BME280;43675;50.030;21.952;2023-04-24T03:48:31;97935.56;;;9.06;55.89
57847;BME280;43675;50.030;21.952;2023-04-24T03:50:57;97940.48;;;9.10;55.90
57847;BME280;43675;50.030;21.952;2023-04-24T03:53:24;97939.10;;;9.16;55.86
57847;BME280;43675;50.030;21.952;2023-04-24T03:55:50;97937.84;;;9.22;55.73
57847;BME280;43675;50.030;21.952;2023-04-24T03:58:17;97940.02;;;9.29;55.73
57847;BME280;43675;50.030;21.952;2023-04-24T04:00:44;97939.67;;;9.38;55.54
57847;BME280;43675;50.030;21.952;2023-04-24T04:03:10;97937.73;;;9.48;55.61
57847;BME280;43675;50.030;21.952;2023-04-24T04:05:37;97938.30;;;9.58;55.48
57847;BME280;43675;50.030;21.952;2023-04-24T04:08:03;97938.55;;;9.70;55.26
57847;BME280;43675;50.030;21.952;2023-04-24T04:10:30;97940.95;;;9.81;55.09
57847;BME280;43675;50.030;21.952;2023-04-24T04:12:56;97938.09;;;9.92;54.97
57847;BME280;43675;50.030;21.952;2023-04-24T04:15:23;97938.02;;;10.02;54.93
57847;BME280;43675;50.030;21.952;2023-04-24T04:17:49;97937.52;;;10.10;54.78
57847;BME280;43675;50.030;21.952;2023-04-24T04:20:16;97940.00;;;10.17;54.69
57847;BME280;43675;50.030;21.952;2023-04-24T04:22:42;97938.28;;;10.24;54.65
57847;BME280;43675;50.030;21.952;2023-04-24T04:25:09;97943.55;;;10.30;54.67
57847;BME280;43675;50.030;21.952;2023-04-24T04:27:36;97939.48;;;10.37;54.48
57847;BME280;43675;50.030;21.952;2023-04-24T04:30:03;97940.68;;;10.45;54.34
57847;BME280;43675;50.030;21.952;2023-04-24T04:32:31;97933.98;;;10.51;54.30
57847;BME280;43675;50.030;21.952;2023-04-24T04:34:57;97934.90;;;10.58;54.12
57847;BME280;43675;50.030;21.952;2023-04-24T04:37:24;97931.28;;;10.64;53.98
57847;BME280;43675;50.030;21.952;2023-04-24T04:39:50;97937.02;;;10.73;53.92
57847;BME280;43675;50.030;21.952;2023-04-24T04:42:17;97933.27;;;10.80;53.84
57847;BME280;43675;50.030;21.952;2023-04-24T04:44:43;97933.96;;;10.87;53.71
57847;BME280;43675;50.030;21.952;2023-04-24T04:47:10;97932.61;;;10.94;53.65
57847;BME280;43675;50.030;21.952;2023-04-24T04:49:37;97931.98;;;11.01;53.53
57847;BME280;43675;50.030;21.952;2023-04-24T04:52:04;97932.00;;;11.10;53.34
57847;BME280;43675;50.030;21.952;2023-04-24T04:54:31;97931.70;;;11.19;53.23
57847;BME280;43675;50.030;21.952;2023-04-24T04:56:57;97928.50;;;11.27;53.20
57847;BME280;43675;50.030;21.952;2023-04-24T04:59:24;97926.45;;;11.37;53.00
57847;BME280;43675;50.030;21.952;2023-04-24T05:01:51;97924.97;;;11.49;52.85
57847;BME280;43675;50.030;21.952;2023-04-24T05:04:17;97927.92;;;11.60;52.55
57847;BME280;43675;50.030;21.952;2023-04-24T05:06:44;97926.45;;;11.69;52.54
57847;BME280;43675;50.030;21.952;2023-04-24T05:09:11;97929.46;;;11.77;52.35
57847;BME280;43675;50.030;21.952;2023-04-24T05:11:37;97928.81;;;11.84;52.23
57847;BME280;43675;50.030;21.952;2023-04-24T05:14:04;97929.62;;;11.93;52.07
57847;BME280;43675;50.030;21.952;2023-04-24T05:16:30;97926.93;;;12.02;51.95
57847;BME280;43675;50.030;21.952;2023-04-24T05:18:57;97927.23;;;12.10;51.89
57847;BME280;43675;50.030;21.952;2023-04-24T05:21:23;97926.33;;;12.19;51.73
57847;BME280;43675;50.030;21.952;2023-04-24T05:23:50;97924.16;;;12.28;51.49
57847;BME280;43675;50.030;21.952;2023-04-24T05:26:16;97922.52;;;12.39;51.40
57847;BME280;43675;50.030;21.952;2023-04-24T05:28:43;97921.70;;;12.49;51.14
57847;BME280;43675;50.030;21.952;2023-04-24T05:31:09;97922.82;;;12.58;51.06
57847;BME280;43675;50.030;21.952;2023-04-24T05:33:36;97921.02;;;12.67;51.09
57847;BME280;43675;50.030;21.952;2023-04-24T05:36:03;97926.88;;;12.77;50.90
57847;BME280;43675;50.030;21.952;2023-04-24T05:38:29;97924.45;;;12.87;50.71
57847;BME280;43675;50.030;21.952;2023-04-24T05:40:56;97925.00;;;12.96;50.56
57847;BME280;43675;50.030;21.952;2023-04-24T05:43:22;97925.80;;;13.06;50.36
57847;BME280;43675;50.030;21.952;2023-04-24T05:45:49;97923.99;;;13.14;50.32
57847;BME280;43675;50.030;21.952;2023-04-24T05:48:15;97924.77;;;13.23;50.11
57847;BME280;43675;50.030;21.952;2023-04-24T05:50:42;97919.19;;;13.33;49.92
57847;BME280;43675;50.030;21.952;2023-04-24T05:53:08;97918.38;;;13.41;49.72
57847;BME280;43675;50.030;21.952;2023-04-24T05:55:35;97916.15;;;13.49;49.73
57847;BME280;43675;50.030;21.952;2023-04-24T05:58:02;97912.27;;;13.59;49.74
57847;BME280;43675;50.030;21.952;2023-04-24T06:00:28;97909.90;;;13.68;49.62
57847;BME280;43675;50.030;21.952;2023-04-24T06:02:55;97910.19;;;13.80;49.35
57847;BME280;43675;50.030;21.952;2023-04-24T06:05:21;97912.78;;;13.90;49.24
57847;BME280;43675;50.030;21.952;2023-04-24T06:07:48;97911.73;;;14.04;48.89
57847;BME280;43675;50.030;21.952;2023-04-24T06:10:14;97909.67;;;14.25;48.71
57847;BME280;43675;50.030;21.952;2023-04-24T06:12:41;97907.80;;;14.36;48.32
57847;BME280;43675;50.030;21.952;2023-04-24T06:15:08;97912.52;;;14.45;48.01
57847;BME280;43675;50.030;21.952;2023-04-24T06:17:35;97912.81;;;14.55;48.02
57847;BME280;43675;50.030;21.952;2023-04-24T06:20:02;97905.55;;;14.64;47.79
57847;BME280;43675;50.030;21.952;2023-04-24T06:22:29;97905.13;;;14.74;47.61
57847;BME280;43675;50.030;21.952;2023-04-24T06:24:55;97904.85;;;14.81;47.52
57847;BME280;43675;50.030;21.952;2023-04-24T06:27:22;97906.30;;;14.88;47.52
57847;BME280;43675;50.030;21.952;2023-04-24T06:29:49;97904.56;;;14.96;47.45
57847;BME280;43675;50.030;21.952;2023-04-24T06:32:15;97907.91;;;15.04;47.29
57847;BME280;43675;50.030;21.952;2023-04-24T06:34:42;97904.59;;;15.11;47.15
57847;BME280;43675;50.030;21.952;2023-04-24T06:37:08;97905.67;;;15.20;47.04
57847;BME280;43675;50.030;21.952;2023-04-24T06:39:35;97906.54;;;15.30;46.92
57847;BME280;43675;50.030;21.952;2023-04-24T06:42:01;97904.05;;;15.40;46.64
57847;BME280;43675;50.030;21.952;2023-04-24T06:44:28;97900.37;;;15.50;46.09
57847;BME280;43675;50.030;21.952;2023-04-24T06:46:54;97898.36;;;15.60;45.65
57847;BME280;43675;50.030;21.952;2023-04-24T06:49:21;97904.08;;;15.69;45.13
57847;BME280;43675;50.030;21.952;2023-04-24T06:51:47;97899.33;;;15.77;44.97
57847;BME280;43675;50.030;21.952;2023-04-24T06:54:14;97899.52;;;15.83;44.76
57847;BME280;43675;50.030;21.952;2023-04-24T06:56:40;97902.61;;;15.90;44.52
57847;BME280;43675;50.030;21.952;2023-04-24T06:59:07;97903.55;;;15.97;44.32
57847;BME280;43675;50.030;21.952;2023-04-24T07:01:33;97900.64;;;16.03;44.23
57847;BME280;43675;50.030;21.952;2023-04-24T07:04:00;97897.84;;;16.10;44.05
57847;BME280;43675;50.030;21.952;2023-04-24T07:06:26;97895.30;;;16.17;44.05
57847;BME280;43675;50.030;21.952;2023-04-24T07:08:53;97897.26;;;16.25;43.92
57847;BME280;43675;50.030;21.952;2023-04-24T07:11:20;97893.09;;;16.32;43.71
57847;BME280;43675;50.030;21.952;2023-04-24T07:13:46;97889.80;;;16.39;43.54
57847;BME280;43675;50.030;21.952;2023-04-24T07:16:13;97891.15;;;16.46;43.40
57847;BME280;43675;50.030;21.952;2023-04-24T07:18:39;97890.02;;;16.53;43.38
57847;BME280;43675;50.030;21.952;2023-04-24T07:21:06;97883.27;;;16.60;43.24
57847;BME280;43675;50.030;21.952;2023-04-24T07:23:32;97882.95;;;16.65;42.97
57847;BME280;43675;50.030;21.952;2023-04-24T07:25:59;97881.73;;;16.71;43.01
57847;BME280;43675;50.030;21.952;2023-04-24T07:28:25;97880.31;;;16.78;43.01
57847;BME280;43675;50.030;21.952;2023-04-24T07:30:52;97877.70;;;16.85;42.89
57847;BME280;43675;50.030;21.952;2023-04-24T07:33:21;97878.84;;;16.93;42.98
57847;BME280;43675;50.030;21.952;2023-04-24T07:35:48;97877.89;;;17.01;42.72
57847;BME280;43675;50.030;21.952;2023-04-24T07:38:14;97875.97;;;17.10;42.49
57847;BME280;43675;50.030;21.952;2023-04-24T07:40:41;97876.10;;;17.18;42.50
57847;BME280;43675;50.030;21.952;2023-04-24T07:43:07;97873.59;;;17.25;42.30
57847;BME280;43675;50.030;21.952;2023-04-24T07:45:34;97874.76;;;17.31;42.42
57847;BME280;43675;50.030;21.952;2023-04-24T07:48:01;97877.48;;;17.38;42.17
57847;BME280;43675;50.030;21.952;2023-04-24T07:50:27;97878.89;;;17.44;42.04
57847;BME280;43675;50.030;21.952;2023-04-24T07:52:54;97878.47;;;17.53;41.86
57847;BME280;43675;50.030;21.952;2023-04-24T07:55:20;97875.22;;;17.59;41.70
57847;BME280;43675;50.030;21.952;2023-04-24T07:57:47;97870.63;;;17.65;41.60
57847;BME280;43675;50.030;21.952;2023-04-24T08:00:14;97872.50;;;17.71;41.39
57847;BME280;43675;50.030;21.952;2023-04-24T08:02:41;97866.44;;;17.77;41.20
57847;BME280;43675;50.030;21.952;2023-04-24T08:05:08;97870.31;;;17.83;41.10
57847;BME280;43675;50.030;21.952;2023-04-24T08:07:34;97872.71;;;17.90;41.13
57847;BME280;43675;50.030;21.952;2023-04-24T08:10:01;97869.36;;;17.96;41.07
57847;BME280;43675;50.030;21.952;2023-04-24T08:12:28;97867.19;;;18.04;40.83
57847;BME280;43675;50.030;21.952;2023-04-24T08:14:55;97866.95;;;18.13;41.00
57847;BME280;43675;50.030;21.952;2023-04-24T08:17:22;97862.93;;;18.22;40.54
57847;BME280;43675;50.030;21.952;2023-04-24T08:19:48;97860.44;;;18.29;40.48
57847;BME280;43675;50.030;21.952;2023-04-24T08:22:15;97865.05;;;18.38;40.12
57847;BME280;43675;50.030;21.952;2023-04-24T08:24:41;97864.90;;;18.47;39.94
57847;BME280;43675;50.030;21.952;2023-04-24T08:27:08;97861.57;;;18.54;39.78
57847;BME280;43675;50.030;21.952;2023-04-24T08:29:35;97859.10;;;18.62;39.53
57847;BME280;43675;50.030;21.952;2023-04-24T08:32:01;97858.64;;;18.70;39.52
57847;BME280;43675;50.030;21.952;2023-04-24T08:34:28;97853.95;;;18.79;39.50
57847;BME280;43675;50.030;21.952;2023-04-24T08:36:55;97856.29;;;18.87;39.49
57847;BME280;43675;50.030;21.952;2023-04-24T08:39:21;97854.68;;;18.96;39.06
57847;BME280;43675;50.030;21.952;2023-04-24T08:41:48;97856.34;;;19.03;38.87
57847;BME280;43675;50.030;21.952;2023-04-24T08:44:15;97855.66;;;19.11;38.84
57847;BME280;43675;50.030;21.952;2023-04-24T08:46:43;97851.70;;;19.19;38.43
57847;BME280;43675;50.030;21.952;2023-04-24T08:49:10;97854.67;;;19.25;38.33
57847;BME280;43675;50.030;21.952;2023-04-24T08:51:37;97851.66;;;19.33;38.13
57847;BME280;43675;50.030;21.952;2023-04-24T08:54:04;97845.88;;;19.37;37.92
57847;BME280;43675;50.030;21.952;2023-04-24T08:56:33;97846.64;;;19.45;37.88
57847;BME280;43675;50.030;21.952;2023-04-24T08:59:00;97845.58;;;19.51;37.59
57847;BME280;43675;50.030;21.952;2023-04-24T09:01:27;97843.02;;;19.56;37.63
57847;BME280;43675;50.030;21.952;2023-04-24T09:03:55;97838.73;;;19.62;37.24
57847;BME280;43675;50.030;21.952;2023-04-24T09:06:21;97838.16;;;19.68;37.05
57847;BME280;43675;50.030;21.952;2023-04-24T09:08:50;97837.06;;;19.73;36.98
57847;BME280;43675;50.030;21.952;2023-04-24T09:11:19;97833.44;;;19.79;36.87
57847;BME280;43675;50.030;21.952;2023-04-24T09:13:46;97830.77;;;19.86;36.77
57847;BME280;43675;50.030;21.952;2023-04-24T09:16:14;97823.01;;;19.92;36.58
57847;BME280;43675;50.030;21.952;2023-04-24T09:18:41;97823.21;;;19.97;36.11
57847;BME280;43675;50.030;21.952;2023-04-24T09:21:08;97823.79;;;20.01;36.25
57847;BME280;43675;50.030;21.952;2023-04-24T09:23:35;97820.45;;;20.06;35.93
57847;BME280;43675;50.030;21.952;2023-04-24T09:26:03;97821.30;;;20.11;35.70
57847;BME280;43675;50.030;21.952;2023-04-24T09:28:32;97816.57;;;20.14;35.29
57847;BME280;43675;50.030;21.952;2023-04-24T09:31:11;97816.06;;;20.18;35.22
57847;BME280;43675;50.030;21.952;2023-04-24T09:33:38;97810.65;;;20.23;34.85
57847;BME280;43675;50.030;21.952;2023-04-24T09:36:05;97804.41;;;20.25;34.68
57847;BME280;43675;50.030;21.952;2023-04-24T09:38:36;97803.00;;;20.28;34.64
57847;BME280;43675;50.030;21.952;2023-04-24T09:41:06;97806.17;;;20.35;34.80
57847;BME280;43675;50.030;21.952;2023-04-24T09:43:33;97803.04;;;20.40;34.51
57847;BME280;43675;50.030;21.952;2023-04-24T09:46:05;97804.41;;;20.43;33.76
57847;BME280;43675;50.030;21.952;2023-04-24T09:48:34;97796.30;;;20.45;33.45
57847;BME280;43675;50.030;21.952;2023-04-24T09:51:03;97797.42;;;20.48;33.53
57847;BME280;43675;50.030;21.952;2023-04-24T09:53:30;97793.98;;;20.52;33.46
57847;BME280;43675;50.030;21.952;2023-04-24T09:56:10;97788.80;;;20.56;33.20
57847;BME280;43675;50.030;21.952;2023-04-24T09:58:37;97786.44;;;20.62;33.35
57847;BME280;43675;50.030;21.952;2023-04-24T10:01:04;97785.65;;;20.72;33.40
57847;BME280;43675;50.030;21.952;2023-04-24T10:03:32;97782.50;;;20.81;32.61
57847;BME280;43675;50.030;21.952;2023-04-24T10:06:00;97776.04;;;20.88;32.55
57847;BME280;43675;50.030;21.952;2023-04-24T10:08:33;97773.23;;;20.97;32.74
57847;BME280;43675;50.030;21.952;2023-04-24T10:11:00;97770.27;;;21.12;32.56
57847;BME280;43675;50.030;21.952;2023-04-24T10:13:27;97766.30;;;21.28;32.04
57847;BME280;43675;50.030;21.952;2023-04-24T10:15:54;97766.69;;;21.40;31.97
57847;BME280;43675;50.030;21.952;2023-04-24T10:18:23;97768.28;;;21.47;31.57
57847;BME280;43675;50.030;21.952;2023-04-24T10:20:50;97764.75;;;21.51;31.19
57847;BME280;43675;50.030;21.952;2023-04-24T10:23:18;97759.20;;;21.55;31.27
57847;BME280;43675;50.030;21.952;2023-04-24T10:25:46;97764.98;;;21.61;31.32
57847;BME280;43675;50.030;21.952;2023-04-24T10:28:13;97755.81;;;21.67;31.16
57847;BME280;43675;50.030;21.952;2023-04-24T10:30:43;97754.19;;;21.74;30.86
57847;BME280;43675;50.030;21.952;2023-04-24T10:33:10;97753.36;;;21.79;30.34
57847;BME280;43675;50.030;21.952;2023-04-24T10:35:44;97749.89;;;21.82;30.27
57847;BME280;43675;50.030;21.952;2023-04-24T10:38:13;97746.72;;;21.83;30.02
57847;BME280;43675;50.030;21.952;2023-04-24T10:40:40;97744.77;;;21.82;29.79
57847;BME280;43675;50.030;21.952;2023-04-24T10:43:08;97742.06;;;21.83;30.01
57847;BME280;43675;50.030;21.952;2023-04-24T10:45:35;97740.30;;;21.85;29.94
57847;BME280;43675;50.030;21.952;2023-04-24T10:48:02;97733.19;;;21.88;29.86
57847;BME280;43675;50.030;21.952;2023-04-24T10:53:13;97735.07;;;21.98;29.87
57847;BME280;43675;50.030;21.952;2023-04-24T10:55:48;97729.30;;;22.08;29.90
57847;BME280;43675;50.030;21.952;2023-04-24T10:58:14;97725.36;;;22.17;29.86
57847;BME280;43675;50.030;21.952;2023-04-24T11:00:41;97724.44;;;22.23;29.91
57847;BME280;43675;50.030;21.952;2023-04-24T11:03:29;97722.14;;;22.29;29.66
57847;BME280;43675;50.030;21.952;2023-04-24T11:06:08;97723.13;;;22.37;29.94
57847;BME280;43675;50.030;21.952;2023-04-24T11:16:29;97720.81;;;22.15;28.89
57847;BME280;43675;50.030;21.952;2023-04-24T11:19:17;97717.88;;;22.02;29.09
57847;BME280;43675;50.030;21.952;2023-04-24T11:22:03;97714.96;;;21.93;29.30
57847;BME280;43675;50.030;21.952;2023-04-24T11:27:11;97711.02;;;21.96;29.69
57847;BME280;43675;50.030;21.952;2023-04-24T11:29:49;97703.51;;;22.03;29.52
57847;BME280;43675;50.030;21.952;2023-04-24T11:35:15;97695.67;;;22.10;29.09
57847;BME280;43675;50.030;21.952;2023-04-24T11:37:50;97701.35;;;22.16;28.89
57847;BME280;43675;50.030;21.952;2023-04-24T11:40:19;97695.56;;;22.21;28.63
57847;BME280;43675;50.030;21.952;2023-04-24T11:42:47;97696.95;;;22.25;28.37
57847;BME280;43675;50.030;21.952;2023-04-24T11:45:16;97696.52;;;22.29;28.45
57847;BME280;43675;50.030;21.952;2023-04-24T11:47:44;97692.07;;;22.32;28.31
57847;BME280;43675;50.030;21.952;2023-04-24T11:50:12;97689.23;;;22.31;28.15
57847;BME280;43675;50.030;21.952;2023-04-24T11:52:41;97686.59;;;22.30;28.11
57847;BME280;43675;50.030;21.952;2023-04-24T11:55:22;97682.02;;;22.29;27.96
57847;BME280;43675;50.030;21.952;2023-04-24T11:57:52;97675.09;;;22.28;28.03
57847;BME280;43675;50.030;21.952;2023-04-24T12:00:30;97673.73;;;22.32;28.00
57847;BME280;43675;50.030;21.952;2023-04-24T12:03:10;97668.97;;;22.32;27.75
57847;BME280;43675;50.030;21.952;2023-04-24T12:05:38;97661.48;;;22.32;27.81
57847;BME280;43675;50.030;21.952;2023-04-24T12:08:05;97658.23;;;22.37;27.78
57847;BME280;43675;50.030;21.952;2023-04-24T12:10:33;97661.14;;;22.44;27.69
57847;BME280;43675;50.030;21.952;2023-04-24T12:13:00;97658.00;;;22.51;27.44
57847;BME280;43675;50.030;21.952;2023-04-24T12:15:27;97653.08;;;22.58;27.30
57847;BME280;43675;50.030;21.952;2023-04-24T12:17:54;97651.57;;;22.62;27.25
57847;BME280;43675;50.030;21.952;2023-04-24T12:22:59;97646.58;;;22.75;26.94
57847;BME280;43675;50.030;21.952;2023-04-24T12:25:28;97639.61;;;22.83;27.10
57847;BME280;43675;50.030;21.952;2023-04-24T12:28:09;97632.47;;;22.94;27.04
57847;BME280;43675;50.030;21.952;2023-04-24T12:30:48;97626.91;;;23.02;26.86
57847;BME280;43675;50.030;21.952;2023-04-24T12:33:19;97630.86;;;22.98;26.87
57847;BME280;43675;50.030;21.952;2023-04-24T12:35:47;97628.36;;;22.88;27.13
57847;BME280;43675;50.030;21.952;2023-04-24T12:38:14;97628.98;;;22.86;27.15
57847;BME280;43675;50.030;21.952;2023-04-24T12:40:42;97622.84;;;22.93;26.76
57847;BME280;43675;50.030;21.952;2023-04-24T12:43:19;97620.18;;;23.08;26.65
57847;BME280;43675;50.030;21.952;2023-04-24T12:45:47;97611.56;;;23.25;26.66
57847;BME280;43675;50.030;21.952;2023-04-24T12:48:14;97605.80;;;23.41;26.42
57847;BME280;43675;50.030;21.952;2023-04-24T12:50:41;97598.02;;;23.58;26.33
57847;BME280;43675;50.030;21.952;2023-04-24T12:53:08;97595.10;;;23.77;26.18
57847;BME280;43675;50.030;21.952;2023-04-24T12:55:35;97589.30;;;23.97;26.10
57847;BME280;43675;50.030;21.952;2023-04-24T12:58:01;97583.50;;;24.16;26.36
57847;BME280;43675;50.030;21.952;2023-04-24T13:00:28;97586.15;;;24.35;25.98
57847;BME280;43675;50.030;21.952;2023-04-24T13:02:55;97584.87;;;24.52;25.42
57847;BME280;43675;50.030;21.952;2023-04-24T13:05:22;97582.45;;;24.64;25.02
57847;BME280;43675;50.030;21.952;2023-04-24T13:07:48;97584.11;;;24.72;24.95
57847;BME280;43675;50.030;21.952;2023-04-24T13:10:15;97582.34;;;24.75;24.68
57847;BME280;43675;50.030;21.952;2023-04-24T13:12:41;97575.89;;;24.75;24.45